sensor_id;sensor_type;location;lat;lon;timestamp;P1;durP1;ratioP1;P2;durP2;ratioP2
9042;SDS011;4556;49.150;8.808;2023-02-01T00:00:38;6.40;;;4.87;;
9042;SDS011;4556;49.150;8.808;2023-02-01T00:03:06;5.47;;;4.13;;
9042;SDS011;4556;49.150;8.808;2023-02-01T00:05:33;4.93;;;3.73;;
9042;SDS011;4556;49.150;8.808;2023-02-01T00:08:00;4.90;;;4.20;;
9042;SDS011;4556;49.150;8.808;2023-02-01T00:10:27;6.27;;;4.47;;
9042;SDS011;4556;49.150;8.808;2023-02-01T00:12:55;6.17;;;4.50;;
9042;SDS011;4556;49.150;8.808;2023-02-01T00:15:23;5.50;;;4.40;;
9042;SDS011;4556;49.150;8.808;2023-02-01T00:17:52;6.60;;;4.37;;
9042;SDS011;4556;49.150;8.808;2023-02-01T00:20:20;6.27;;;3.73;;
9042;SDS011;4556;49.150;8.808;2023-02-01T00:22:47;4.93;;;3.93;;
9042;SDS011;4556;49.150;8.808;2023-02-01T00:25:14;7.43;;;3.97;;
9042;SDS011;4556;49.150;8.808;2023-02-01T00:27:42;5.87;;;4.00;;
9042;SDS011;4556;49.150;8.808;2023-02-01T00:30:09;5.80;;;4.37;;
9042;SDS011;4556;49.150;8.808;2023-02-01T00:32:39;5.97;;;3.93;;
9042;SDS011;4556;49.150;8.808;2023-02-01T00:35:06;5.87;;;4.23;;
9042;SDS011;4556;49.150;8.808;2023-02-01T00:37:34;6.40;;;4.63;;
9042;SDS011;4556;49.150;8.808;2023-02-01T00:40:01;7.80;;;4.30;;
9042;SDS011;4556;49.150;8.808;2023-02-01T00:42:28;5.07;;;3.70;;
9042;SDS011;4556;49.150;8.808;2023-02-01T00:44:56;7.00;;;4.20;;
9042;SDS011;4556;49.150;8.808;2023-02-01T00:47:23;5.63;;;4.00;;
9042;SDS011;4556;49.150;8.808;2023-02-01T00:49:52;5.33;;;4.37;;
9042;SDS011;4556;49.150;8.808;2023-02-01T00:52:19;5.03;;;4.00;;
9042;SDS011;4556;49.150;8.808;2023-02-01T00:54:46;6.00;;;3.73;;
9042;SDS011;4556;49.150;8.808;2023-02-01T00:57:13;7.53;;;3.90;;
9042;SDS011;4556;49.150;8.808;2023-02-01T00:59:40;6.33;;;3.60;;
9042;SDS011;4556;49.150;8.808;2023-02-01T01:02:07;6.77;;;4.20;;
9042;SDS011;4556;49.150;8.808;2023-02-01T01:04:35;6.07;;;3.90;;
9042;SDS011;4556;49.150;8.808;2023-02-01T01:07:04;6.00;;;4.10;;
9042;SDS011;4556;49.150;8.808;2023-02-01T01:09:31;5.00;;;3.73;;
9042;SDS011;4556;49.150;8.808;2023-02-01T01:11:58;7.70;;;4.27;;
9042;SDS011;4556;49.150;8.808;2023-02-01T01:14:27;4.00;;;3.43;;
9042;SDS011;4556;49.150;8.808;2023-02-01T01:16:54;4.63;;;3.73;;
9042;SDS011;4556;49.150;8.808;2023-02-01T01:19:22;5.03;;;3.50;;
9042;SDS011;4556;49.150;8.808;2023-02-01T01:21:49;5.50;;;3.60;;
9042;SDS011;4556;49.150;8.808;2023-02-01T01:24:17;4.67;;;3.60;;
9042;SDS011;4556;49.150;8.808;2023-02-01T01:26:44;4.77;;;3.77;;
9042;SDS011;4556;49.150;8.808;2023-02-01T01:29:11;4.83;;;3.67;;
9042;SDS011;4556;49.150;8.808;2023-02-01T01:31:38;6.20;;;3.50;;
9042;SDS011;4556;49.150;8.808;2023-02-01T01:34:05;6.33;;;3.40;;
9042;SDS011;4556;49.150;8.808;2023-02-01T01:36:32;5.40;;;3.73;;
9042;SDS011;4556;49.150;8.808;2023-02-01T01:39:00;4.83;;;3.30;;
9042;SDS011;4556;49.150;8.808;2023-02-01T01:41:30;4.03;;;2.97;;
9042;SDS011;4556;49.150;8.808;2023-02-01T01:43:59;6.47;;;3.60;;
9042;SDS011;4556;49.150;8.808;2023-02-01T01:46:28;7.13;;;3.63;;
9042;SDS011;4556;49.150;8.808;2023-02-01T01:49:00;4.80;;;3.37;;
9042;SDS011;4556;49.150;8.808;2023-02-01T01:51:31;4.63;;;3.40;;
9042;SDS011;4556;49.150;8.808;2023-02-01T01:54:03;4.87;;;3.60;;
9042;SDS011;4556;49.150;8.808;2023-02-01T01:56:38;6.07;;;3.77;;
9042;SDS011;4556;49.150;8.808;2023-02-01T01:59:07;4.23;;;3.63;;
9042;SDS011;4556;49.150;8.808;2023-02-01T02:01:34;4.80;;;3.23;;
9042;SDS011;4556;49.150;8.808;2023-02-01T02:04:02;5.87;;;3.57;;
9042;SDS011;4556;49.150;8.808;2023-02-01T02:06:33;5.33;;;3.87;;
9042;SDS011;4556;49.150;8.808;2023-02-01T02:09:10;4.93;;;3.37;;
9042;SDS011;4556;49.150;8.808;2023-02-01T02:11:39;4.20;;;3.13;;
9042;SDS011;4556;49.150;8.808;2023-02-01T02:14:07;6.27;;;3.47;;
9042;SDS011;4556;49.150;8.808;2023-02-01T02:16:39;6.43;;;3.17;;
9042;SDS011;4556;49.150;8.808;2023-02-01T02:22:29;5.27;;;3.37;;
9042;SDS011;4556;49.150;8.808;2023-02-01T02:25:18;4.47;;;3.10;;
9042;SDS011;4556;49.150;8.808;2023-02-01T02:28:01;3.47;;;2.83;;
9042;SDS011;4556;49.150;8.808;2023-02-01T02:30:41;6.50;;;3.03;;
9042;SDS011;4556;49.150;8.808;2023-02-01T02:36:26;3.27;;;2.80;;
9042;SDS011;4556;49.150;8.808;2023-02-01T02:39:04;3.57;;;2.70;;
9042;SDS011;4556;49.150;8.808;2023-02-01T02:41:37;3.97;;;3.07;;
9042;SDS011;4556;49.150;8.808;2023-02-01T02:44:32;4.53;;;2.90;;
9042;SDS011;4556;49.150;8.808;2023-02-01T02:47:25;5.07;;;2.90;;
9042;SDS011;4556;49.150;8.808;2023-02-01T02:50:01;3.17;;;2.70;;
9042;SDS011;4556;49.150;8.808;2023-02-01T02:52:54;3.33;;;2.90;;
9042;SDS011;4556;49.150;8.808;2023-02-01T02:55:44;4.07;;;3.20;;
9042;SDS011;4556;49.150;8.808;2023-02-01T02:58:12;4.80;;;3.23;;
9042;SDS011;4556;49.150;8.808;2023-02-01T03:00:58;4.90;;;2.80;;
9042;SDS011;4556;49.150;8.808;2023-02-01T03:03:44;5.17;;;2.80;;
9042;SDS011;4556;49.150;8.808;2023-02-01T03:06:35;3.57;;;2.70;;
9042;SDS011;4556;49.150;8.808;2023-02-01T03:09:04;4.80;;;2.63;;
9042;SDS011;4556;49.150;8.808;2023-02-01T03:11:36;5.43;;;3.03;;
9042;SDS011;4556;49.150;8.808;2023-02-01T03:14:22;3.93;;;2.83;;
9042;SDS011;4556;49.150;8.808;2023-02-01T03:16:54;4.90;;;3.17;;
9042;SDS011;4556;49.150;8.808;2023-02-01T03:19:25;3.13;;;2.67;;
9042;SDS011;4556;49.150;8.808;2023-02-01T03:21:59;4.13;;;2.60;;
9042;SDS011;4556;49.150;8.808;2023-02-01T03:24:30;4.27;;;3.10;;
9042;SDS011;4556;49.150;8.808;2023-02-01T03:27:01;5.17;;;2.70;;
9042;SDS011;4556;49.150;8.808;2023-02-01T03:29:33;3.20;;;2.70;;
9042;SDS011;4556;49.150;8.808;2023-02-01T03:32:07;4.33;;;3.30;;
9042;SDS011;4556;49.150;8.808;2023-02-01T03:34:35;3.43;;;2.80;;
9042;SDS011;4556;49.150;8.808;2023-02-01T03:37:05;5.23;;;3.37;;
9042;SDS011;4556;49.150;8.808;2023-02-01T03:39:37;5.77;;;2.93;;
9042;SDS011;4556;49.150;8.808;2023-02-01T03:42:13;3.63;;;2.83;;
9042;SDS011;4556;49.150;8.808;2023-02-01T03:44:46;4.37;;;3.23;;
9042;SDS011;4556;49.150;8.808;2023-02-01T03:47:16;3.80;;;2.60;;
9042;SDS011;4556;49.150;8.808;2023-02-01T03:49:49;4.03;;;3.20;;
9042;SDS011;4556;49.150;8.808;2023-02-01T03:52:22;3.20;;;2.70;;
9042;SDS011;4556;49.150;8.808;2023-02-01T03:54:51;3.63;;;2.67;;
9042;SDS011;4556;49.150;8.808;2023-02-01T03:57:20;4.10;;;2.90;;
9042;SDS011;4556;49.150;8.808;2023-02-01T03:59:51;4.63;;;2.93;;
9042;SDS011;4556;49.150;8.808;2023-02-01T04:02:19;4.27;;;2.73;;
9042;SDS011;4556;49.150;8.808;2023-02-01T04:04:46;4.70;;;3.13;;
9042;SDS011;4556;49.150;8.808;2023-02-01T04:07:13;4.73;;;3.03;;
9042;SDS011;4556;49.150;8.808;2023-02-01T04:09:43;3.50;;;2.70;;
9042;SDS011;4556;49.150;8.808;2023-02-01T04:12:10;3.40;;;3.00;;
9042;SDS011;4556;49.150;8.808;2023-02-01T04:14:37;5.37;;;3.37;;
9042;SDS011;4556;49.150;8.808;2023-02-01T04:17:04;5.50;;;3.27;;
9042;SDS011;4556;49.150;8.808;2023-02-01T04:19:31;4.40;;;3.33;;
9042;SDS011;4556;49.150;8.808;2023-02-01T04:21:58;6.10;;;3.60;;
9042;SDS011;4556;49.150;8.808;2023-02-01T04:24:25;5.30;;;3.60;;
9042;SDS011;4556;49.150;8.808;2023-02-01T04:26:54;4.63;;;3.27;;
9042;SDS011;4556;49.150;8.808;2023-02-01T04:29:22;3.33;;;2.93;;
9042;SDS011;4556;49.150;8.808;2023-02-01T04:31:49;4.97;;;3.00;;
9042;SDS011;4556;49.150;8.808;2023-02-01T04:34:16;5.47;;;3.20;;
9042;SDS011;4556;49.150;8.808;2023-02-01T04:36:43;4.50;;;3.00;;
9042;SDS011;4556;49.150;8.808;2023-02-01T04:39:10;3.80;;;2.90;;
9042;SDS011;4556;49.150;8.808;2023-02-01T04:41:37;4.70;;;2.87;;
9042;SDS011;4556;49.150;8.808;2023-02-01T04:44:08;3.47;;;2.77;;
9042;SDS011;4556;49.150;8.808;2023-02-01T04:46:40;3.27;;;2.70;;
9042;SDS011;4556;49.150;8.808;2023-02-01T04:49:07;4.00;;;2.93;;
9042;SDS011;4556;49.150;8.808;2023-02-01T04:51:35;3.70;;;2.53;;
9042;SDS011;4556;49.150;8.808;2023-02-01T04:54:03;3.90;;;2.73;;
9042;SDS011;4556;49.150;8.808;2023-02-01T04:56:30;3.83;;;2.70;;
9042;SDS011;4556;49.150;8.808;2023-02-01T04:58:58;4.87;;;3.13;;
9042;SDS011;4556;49.150;8.808;2023-02-01T05:01:29;3.77;;;2.80;;
9042;SDS011;4556;49.150;8.808;2023-02-01T05:03:56;3.40;;;2.70;;
9042;SDS011;4556;49.150;8.808;2023-02-01T05:06:23;4.47;;;2.60;;
9042;SDS011;4556;49.150;8.808;2023-02-01T05:08:51;2.90;;;2.60;;
9042;SDS011;4556;49.150;8.808;2023-02-01T05:11:18;3.43;;;2.53;;
9042;SDS011;4556;49.150;8.808;2023-02-01T05:14:02;3.00;;;2.40;;
9042;SDS011;4556;49.150;8.808;2023-02-01T05:16:31;3.23;;;2.60;;
9042;SDS011;4556;49.150;8.808;2023-02-01T05:18:58;4.40;;;2.60;;
9042;SDS011;4556;49.150;8.808;2023-02-01T05:21:25;3.33;;;2.70;;
9042;SDS011;4556;49.150;8.808;2023-02-01T05:23:52;3.17;;;2.50;;
9042;SDS011;4556;49.150;8.808;2023-02-01T05:26:41;4.23;;;3.30;;
9042;SDS011;4556;49.150;8.808;2023-02-01T05:29:09;4.50;;;2.93;;
9042;SDS011;4556;49.150;8.808;2023-02-01T05:31:38;3.10;;;2.70;;
9042;SDS011;4556;49.150;8.808;2023-02-01T05:34:05;4.13;;;2.83;;
9042;SDS011;4556;49.150;8.808;2023-02-01T05:36:33;3.77;;;3.20;;
9042;SDS011;4556;49.150;8.808;2023-02-01T05:39:00;4.13;;;2.87;;
9042;SDS011;4556;49.150;8.808;2023-02-01T05:41:27;3.60;;;2.83;;
9042;SDS011;4556;49.150;8.808;2023-02-01T05:43:54;3.70;;;2.40;;
9042;SDS011;4556;49.150;8.808;2023-02-01T05:46:21;4.37;;;2.57;;
9042;SDS011;4556;49.150;8.808;2023-02-01T05:48:49;3.77;;;2.80;;
9042;SDS011;4556;49.150;8.808;2023-02-01T05:51:16;3.90;;;2.50;;
9042;SDS011;4556;49.150;8.808;2023-02-01T05:53:43;5.17;;;2.67;;
9042;SDS011;4556;49.150;8.808;2023-02-01T05:56:10;5.67;;;2.80;;
9042;SDS011;4556;49.150;8.808;2023-02-01T05:58:37;6.07;;;3.00;;
9042;SDS011;4556;49.150;8.808;2023-02-01T06:01:04;5.30;;;3.13;;
9042;SDS011;4556;49.150;8.808;2023-02-01T06:03:32;4.23;;;3.20;;
9042;SDS011;4556;49.150;8.808;2023-02-01T06:06:00;3.93;;;3.03;;
9042;SDS011;4556;49.150;8.808;2023-02-01T06:08:27;5.27;;;3.43;;
9042;SDS011;4556;49.150;8.808;2023-02-01T06:10:58;5.13;;;3.20;;
9042;SDS011;4556;49.150;8.808;2023-02-01T06:13:25;4.43;;;3.87;;
9042;SDS011;4556;49.150;8.808;2023-02-01T06:15:53;5.77;;;3.73;;
9042;SDS011;4556;49.150;8.808;2023-02-01T06:18:20;6.80;;;4.30;;
9042;SDS011;4556;49.150;8.808;2023-02-01T06:20:51;8.67;;;4.00;;
9042;SDS011;4556;49.150;8.808;2023-02-01T06:23:20;6.33;;;4.47;;
9042;SDS011;4556;49.150;8.808;2023-02-01T06:25:48;7.30;;;4.23;;
9042;SDS011;4556;49.150;8.808;2023-02-01T06:28:16;5.57;;;4.33;;
9042;SDS011;4556;49.150;8.808;2023-02-01T06:30:43;8.97;;;4.30;;
9042;SDS011;4556;49.150;8.808;2023-02-01T06:33:11;7.37;;;4.40;;
9042;SDS011;4556;49.150;8.808;2023-02-01T06:35:39;8.47;;;4.13;;
9042;SDS011;4556;49.150;8.808;2023-02-01T06:38:09;10.20;;;5.00;;
9042;SDS011;4556;49.150;8.808;2023-02-01T06:40:38;6.57;;;3.87;;
9042;SDS011;4556;49.150;8.808;2023-02-01T06:43:06;6.40;;;4.17;;
9042;SDS011;4556;49.150;8.808;2023-02-01T06:45:33;7.20;;;4.43;;
9042;SDS011;4556;49.150;8.808;2023-02-01T06:48:00;5.30;;;3.87;;
9042;SDS011;4556;49.150;8.808;2023-02-01T06:50:27;6.87;;;4.53;;
9042;SDS011;4556;49.150;8.808;2023-02-01T06:52:55;6.30;;;4.23;;
9042;SDS011;4556;49.150;8.808;2023-02-01T06:55:22;7.53;;;3.90;;
9042;SDS011;4556;49.150;8.808;2023-02-01T06:57:54;7.40;;;4.20;;
9042;SDS011;4556;49.150;8.808;2023-02-01T07:00:21;8.97;;;4.23;;
9042;SDS011;4556;49.150;8.808;2023-02-01T07:02:49;7.07;;;3.80;;
9042;SDS011;4556;49.150;8.808;2023-02-01T07:05:17;4.73;;;4.00;;
9042;SDS011;4556;49.150;8.808;2023-02-01T07:07:44;6.87;;;4.33;;
9042;SDS011;4556;49.150;8.808;2023-02-01T07:10:11;5.73;;;4.23;;
9042;SDS011;4556;49.150;8.808;2023-02-01T07:12:39;7.57;;;4.23;;
9042;SDS011;4556;49.150;8.808;2023-02-01T07:15:08;6.67;;;4.10;;
9042;SDS011;4556;49.150;8.808;2023-02-01T07:17:36;7.97;;;3.90;;
9042;SDS011;4556;49.150;8.808;2023-02-01T07:20:03;8.30;;;4.23;;
9042;SDS011;4556;49.150;8.808;2023-02-01T07:22:31;7.43;;;3.53;;
9042;SDS011;4556;49.150;8.808;2023-02-01T07:24:58;7.07;;;4.20;;
9042;SDS011;4556;49.150;8.808;2023-02-01T07:27:25;6.13;;;4.60;;
9042;SDS011;4556;49.150;8.808;2023-02-01T07:29:52;8.93;;;5.57;;
9042;SDS011;4556;49.150;8.808;2023-02-01T07:32:22;10.00;;;5.27;;
9042;SDS011;4556;49.150;8.808;2023-02-01T07:34:49;8.30;;;5.43;;
9042;SDS011;4556;49.150;8.808;2023-02-01T07:37:16;7.90;;;5.20;;
9042;SDS011;4556;49.150;8.808;2023-02-01T07:39:43;9.47;;;5.30;;
9042;SDS011;4556;49.150;8.808;2023-02-01T07:42:11;8.47;;;4.80;;
9042;SDS011;4556;49.150;8.808;2023-02-01T07:44:38;6.67;;;4.97;;
9042;SDS011;4556;49.150;8.808;2023-02-01T07:47:05;8.37;;;5.60;;
9042;SDS011;4556;49.150;8.808;2023-02-01T07:49:34;7.17;;;5.33;;
9042;SDS011;4556;49.150;8.808;2023-02-01T07:52:01;9.87;;;5.50;;
9042;SDS011;4556;49.150;8.808;2023-02-01T07:54:28;9.80;;;5.07;;
9042;SDS011;4556;49.150;8.808;2023-02-01T07:56:55;6.20;;;5.50;;
9042;SDS011;4556;49.150;8.808;2023-02-01T07:59:22;7.40;;;5.07;;
9042;SDS011;4556;49.150;8.808;2023-02-01T08:01:49;9.23;;;5.13;;
9042;SDS011;4556;49.150;8.808;2023-02-01T08:04:15;10.37;;;5.47;;
9042;SDS011;4556;49.150;8.808;2023-02-01T08:06:44;9.27;;;4.90;;
9042;SDS011;4556;49.150;8.808;2023-02-01T08:09:11;8.87;;;4.40;;
9042;SDS011;4556;49.150;8.808;2023-02-01T08:11:39;11.07;;;5.30;;
9042;SDS011;4556;49.150;8.808;2023-02-01T08:14:06;8.87;;;5.10;;
9042;SDS011;4556;49.150;8.808;2023-02-01T08:16:33;7.93;;;4.57;;
9042;SDS011;4556;49.150;8.808;2023-02-01T08:19:02;9.93;;;4.83;;
9042;SDS011;4556;49.150;8.808;2023-02-01T08:21:29;7.13;;;4.83;;
9042;SDS011;4556;49.150;8.808;2023-02-01T08:24:04;8.50;;;4.80;;
9042;SDS011;4556;49.150;8.808;2023-02-01T08:26:32;9.20;;;4.77;;
9042;SDS011;4556;49.150;8.808;2023-02-01T08:29:01;8.37;;;4.77;;
9042;SDS011;4556;49.150;8.808;2023-02-01T08:31:30;6.30;;;4.13;;
9042;SDS011;4556;49.150;8.808;2023-02-01T08:33:58;9.60;;;5.10;;
9042;SDS011;4556;49.150;8.808;2023-02-01T08:36:29;8.20;;;4.43;;
9042;SDS011;4556;49.150;8.808;2023-02-01T08:39:00;11.80;;;4.50;;
9042;SDS011;4556;49.150;8.808;2023-02-01T08:41:32;8.37;;;4.40;;
9042;SDS011;4556;49.150;8.808;2023-02-01T08:43:59;9.37;;;4.20;;
9042;SDS011;4556;49.150;8.808;2023-02-01T08:46:26;8.47;;;3.93;;
9042;SDS011;4556;49.150;8.808;2023-02-01T08:48:53;10.20;;;4.00;;
9042;SDS011;4556;49.150;8.808;2023-02-01T08:51:21;6.80;;;3.63;;
9042;SDS011;4556;49.150;8.808;2023-02-01T08:53:49;7.40;;;3.87;;
9042;SDS011;4556;49.150;8.808;2023-02-01T08:56:17;6.73;;;3.70;;
9042;SDS011;4556;49.150;8.808;2023-02-01T08:58:47;6.77;;;4.00;;
9042;SDS011;4556;49.150;8.808;2023-02-01T09:01:15;8.53;;;4.03;;
9042;SDS011;4556;49.150;8.808;2023-02-01T09:03:43;6.73;;;3.43;;
9042;SDS011;4556;49.150;8.808;2023-02-01T09:06:11;7.57;;;4.10;;
9042;SDS011;4556;49.150;8.808;2023-02-01T09:08:40;7.53;;;2.90;;
9042;SDS011;4556;49.150;8.808;2023-02-01T09:11:09;6.83;;;3.43;;
9042;SDS011;4556;49.150;8.808;2023-02-01T09:13:37;6.27;;;3.50;;
9042;SDS011;4556;49.150;8.808;2023-02-01T09:16:06;6.67;;;3.30;;
9042;SDS011;4556;49.150;8.808;2023-02-01T09:18:34;4.93;;;3.20;;
9042;SDS011;4556;49.150;8.808;2023-02-01T09:21:03;7.77;;;3.63;;
9042;SDS011;4556;49.150;8.808;2023-02-01T09:23:31;7.47;;;3.27;;
9042;SDS011;4556;49.150;8.808;2023-02-01T09:25:59;7.60;;;3.30;;
9042;SDS011;4556;49.150;8.808;2023-02-01T09:28:26;8.97;;;3.10;;
9042;SDS011;4556;49.150;8.808;2023-02-01T09:30:54;12.60;;;3.70;;
9042;SDS011;4556;49.150;8.808;2023-02-01T09:33:24;7.97;;;3.40;;
9042;SDS011;4556;49.150;8.808;2023-02-01T09:35:54;9.23;;;3.60;;
9042;SDS011;4556;49.150;8.808;2023-02-01T09:38:23;12.57;;;3.80;;
9042;SDS011;4556;49.150;8.808;2023-02-01T09:40:52;10.70;;;3.20;;
9042;SDS011;4556;49.150;8.808;2023-02-01T09:43:27;8.57;;;3.10;;
9042;SDS011;4556;49.150;8.808;2023-02-01T09:46:10;11.30;;;3.03;;
9042;SDS011;4556;49.150;8.808;2023-02-01T09:48:48;16.67;;;3.47;;
9042;SDS011;4556;49.150;8.808;2023-02-01T09:51:20;10.60;;;3.00;;
9042;SDS011;4556;49.150;8.808;2023-02-01T09:53:55;10.30;;;3.67;;
9042;SDS011;4556;49.150;8.808;2023-02-01T09:56:27;14.03;;;2.93;;
9042;SDS011;4556;49.150;8.808;2023-02-01T09:59:01;7.27;;;3.07;;
9042;SDS011;4556;49.150;8.808;2023-02-01T10:01:35;6.97;;;2.70;;
9042;SDS011;4556;49.150;8.808;2023-02-01T10:04:07;10.30;;;3.20;;
9042;SDS011;4556;49.150;8.808;2023-02-01T10:06:39;9.37;;;3.27;;
9042;SDS011;4556;49.150;8.808;2023-02-01T10:09:19;10.83;;;2.80;;
9042;SDS011;4556;49.150;8.808;2023-02-01T10:12:04;9.00;;;3.70;;
9042;SDS011;4556;49.150;8.808;2023-02-01T10:14:56;9.50;;;3.23;;
9042;SDS011;4556;49.150;8.808;2023-02-01T10:17:33;6.90;;;2.90;;
9042;SDS011;4556;49.150;8.808;2023-02-01T10:20:16;10.57;;;2.80;;
9042;SDS011;4556;49.150;8.808;2023-02-01T10:22:53;11.20;;;3.10;;
9042;SDS011;4556;49.150;8.808;2023-02-01T10:25:31;11.00;;;3.30;;
9042;SDS011;4556;49.150;8.808;2023-02-01T10:28:03;12.53;;;3.13;;
9042;SDS011;4556;49.150;8.808;2023-02-01T10:30:31;11.97;;;2.30;;
9042;SDS011;4556;49.150;8.808;2023-02-01T10:33:07;6.60;;;2.50;;
9042;SDS011;4556;49.150;8.808;2023-02-01T10:35:43;9.30;;;2.67;;
9042;SDS011;4556;49.150;8.808;2023-02-01T10:38:12;8.87;;;2.73;;
9042;SDS011;4556;49.150;8.808;2023-02-01T10:40:47;9.23;;;2.87;;
9042;SDS011;4556;49.150;8.808;2023-02-01T10:43:15;11.47;;;3.00;;
9042;SDS011;4556;49.150;8.808;2023-02-01T10:45:42;8.33;;;2.37;;
9042;SDS011;4556;49.150;8.808;2023-02-01T10:48:09;8.97;;;3.20;;
9042;SDS011;4556;49.150;8.808;2023-02-01T10:50:38;8.83;;;2.97;;
9042;SDS011;4556;49.150;8.808;2023-02-01T10:53:15;10.10;;;2.50;;
9042;SDS011;4556;49.150;8.808;2023-02-01T10:55:47;15.07;;;3.20;;
9042;SDS011;4556;49.150;8.808;2023-02-01T10:58:17;7.97;;;2.57;;
9042;SDS011;4556;49.150;8.808;2023-02-01T11:00:46;8.33;;;2.83;;
9042;SDS011;4556;49.150;8.808;2023-02-01T11:06:09;7.93;;;2.83;;
9042;SDS011;4556;49.150;8.808;2023-02-01T11:08:47;12.57;;;2.77;;
9042;SDS011;4556;49.150;8.808;2023-02-01T11:11:16;9.80;;;2.53;;
9042;SDS011;4556;49.150;8.808;2023-02-01T11:13:43;8.27;;;2.47;;
9042;SDS011;4556;49.150;8.808;2023-02-01T11:16:11;10.00;;;3.10;;
9042;SDS011;4556;49.150;8.808;2023-02-01T11:18:41;11.30;;;2.50;;
9042;SDS011;4556;49.150;8.808;2023-02-01T11:21:08;10.77;;;2.10;;
9042;SDS011;4556;49.150;8.808;2023-02-01T11:23:39;10.07;;;2.77;;
9042;SDS011;4556;49.150;8.808;2023-02-01T11:26:11;7.87;;;2.57;;
9042;SDS011;4556;49.150;8.808;2023-02-01T11:28:44;18.67;;;3.10;;
9042;SDS011;4556;49.150;8.808;2023-02-01T11:31:18;8.53;;;2.93;;
9042;SDS011;4556;49.150;8.808;2023-02-01T11:33:47;13.20;;;3.00;;
9042;SDS011;4556;49.150;8.808;2023-02-01T11:36:20;10.30;;;2.57;;
9042;SDS011;4556;49.150;8.808;2023-02-01T11:38:52;11.13;;;2.23;;
9042;SDS011;4556;49.150;8.808;2023-02-01T11:41:22;8.67;;;2.77;;
9042;SDS011;4556;49.150;8.808;2023-02-01T11:43:52;8.57;;;2.80;;
9042;SDS011;4556;49.150;8.808;2023-02-01T11:46:28;9.53;;;2.63;;
9042;SDS011;4556;49.150;8.808;2023-02-01T11:48:57;7.77;;;2.30;;
9042;SDS011;4556;49.150;8.808;2023-02-01T11:51:47;9.83;;;3.00;;
9042;SDS011;4556;49.150;8.808;2023-02-01T11:54:32;11.17;;;3.10;;
9042;SDS011;4556;49.150;8.808;2023-02-01T12:00:23;9.40;;;2.67;;
9042;SDS011;4556;49.150;8.808;2023-02-01T12:03:08;6.43;;;2.23;;
9042;SDS011;4556;49.150;8.808;2023-02-01T12:06:05;8.83;;;2.80;;
9042;SDS011;4556;49.150;8.808;2023-02-01T12:08:53;7.40;;;2.50;;
9042;SDS011;4556;49.150;8.808;2023-02-01T12:11:36;11.60;;;2.53;;
9042;SDS011;4556;49.150;8.808;2023-02-01T12:14:21;12.67;;;2.57;;
9042;SDS011;4556;49.150;8.808;2023-02-01T12:17:06;11.67;;;3.03;;
9042;SDS011;4556;49.150;8.808;2023-02-01T12:19:56;11.53;;;3.10;;
9042;SDS011;4556;49.150;8.808;2023-02-01T12:22:37;8.03;;;2.43;;
9042;SDS011;4556;49.150;8.808;2023-02-01T12:25:20;10.57;;;2.80;;
9042;SDS011;4556;49.150;8.808;2023-02-01T12:31:01;10.17;;;2.90;;
9042;SDS011;4556;49.150;8.808;2023-02-01T12:33:48;10.27;;;2.47;;
9042;SDS011;4556;49.150;8.808;2023-02-01T12:36:32;10.20;;;2.40;;
9042;SDS011;4556;49.150;8.808;2023-02-01T12:39:08;9.37;;;2.33;;
9042;SDS011;4556;49.150;8.808;2023-02-01T12:41:48;8.53;;;3.03;;
9042;SDS011;4556;49.150;8.808;2023-02-01T12:44:25;7.00;;;2.30;;
9042;SDS011;4556;49.150;8.808;2023-02-01T12:46:59;8.87;;;2.10;;
9042;SDS011;4556;49.150;8.808;2023-02-01T12:49:35;13.83;;;3.27;;
9042;SDS011;4556;49.150;8.808;2023-02-01T12:52:10;8.53;;;2.50;;
9042;SDS011;4556;49.150;8.808;2023-02-01T12:54:45;9.30;;;2.70;;
9042;SDS011;4556;49.150;8.808;2023-02-01T12:57:17;9.70;;;2.57;;
9042;SDS011;4556;49.150;8.808;2023-02-01T12:59:50;11.47;;;2.40;;
9042;SDS011;4556;49.150;8.808;2023-02-01T13:02:24;11.20;;;3.10;;
9042;SDS011;4556;49.150;8.808;2023-02-01T13:05:01;11.63;;;2.73;;
9042;SDS011;4556;49.150;8.808;2023-02-01T13:07:34;7.87;;;2.47;;
9042;SDS011;4556;49.150;8.808;2023-02-01T13:10:11;12.63;;;2.53;;
9042;SDS011;4556;49.150;8.808;2023-02-01T13:12:43;9.27;;;2.90;;
9042;SDS011;4556;49.150;8.808;2023-02-01T13:15:17;9.13;;;2.43;;
9042;SDS011;4556;49.150;8.808;2023-02-01T13:17:47;11.33;;;2.63;;
9042;SDS011;4556;49.150;8.808;2023-02-01T13:20:21;11.70;;;3.17;;
9042;SDS011;4556;49.150;8.808;2023-02-01T13:22:53;9.90;;;3.13;;
9042;SDS011;4556;49.150;8.808;2023-02-01T13:25:27;11.27;;;2.77;;
9042;SDS011;4556;49.150;8.808;2023-02-01T13:28:00;10.07;;;2.50;;
9042;SDS011;4556;49.150;8.808;2023-02-01T13:30:34;7.90;;;2.53;;
9042;SDS011;4556;49.150;8.808;2023-02-01T13:33:17;11.63;;;2.83;;
9042;SDS011;4556;49.150;8.808;2023-02-01T13:36:08;11.67;;;2.80;;
9042;SDS011;4556;49.150;8.808;2023-02-01T13:42:00;12.27;;;3.43;;
9042;SDS011;4556;49.150;8.808;2023-02-01T13:44:30;10.13;;;3.10;;
9042;SDS011;4556;49.150;8.808;2023-02-01T13:47:01;13.60;;;2.83;;
9042;SDS011;4556;49.150;8.808;2023-02-01T13:49:30;11.53;;;2.90;;
9042;SDS011;4556;49.150;8.808;2023-02-01T13:52:01;10.80;;;2.70;;
9042;SDS011;4556;49.150;8.808;2023-02-01T13:54:29;9.27;;;2.73;;
9042;SDS011;4556;49.150;8.808;2023-02-01T13:56:59;10.83;;;3.03;;
9042;SDS011;4556;49.150;8.808;2023-02-01T14:03:00;11.43;;;2.67;;
9042;SDS011;4556;49.150;8.808;2023-02-01T14:11:44;9.83;;;2.47;;
9042;SDS011;4556;49.150;8.808;2023-02-01T14:26:28;9.63;;;2.50;;
9042;SDS011;4556;49.150;8.808;2023-02-01T14:32:01;11.57;;;3.00;;
9042;SDS011;4556;49.150;8.808;2023-02-01T14:34:34;13.33;;;3.43;;
9042;SDS011;4556;49.150;8.808;2023-02-01T14:37:08;12.90;;;3.57;;
9042;SDS011;4556;49.150;8.808;2023-02-01T14:39:47;9.43;;;2.67;;
9042;SDS011;4556;49.150;8.808;2023-02-01T14:42:24;14.00;;;2.90;;
9042;SDS011;4556;49.150;8.808;2023-02-01T14:44:53;14.07;;;2.73;;
9042;SDS011;4556;49.150;8.808;2023-02-01T14:47:31;13.50;;;3.10;;
9042;SDS011;4556;49.150;8.808;2023-02-01T14:50:14;12.00;;;2.63;;
9042;SDS011;4556;49.150;8.808;2023-02-01T14:52:52;12.40;;;2.90;;
9042;SDS011;4556;49.150;8.808;2023-02-01T14:55:34;12.43;;;2.97;;
9042;SDS011;4556;49.150;8.808;2023-02-01T14:58:06;9.57;;;2.60;;
9042;SDS011;4556;49.150;8.808;2023-02-01T15:00:47;9.40;;;2.60;;
9042;SDS011;4556;49.150;8.808;2023-02-01T15:03:34;12.87;;;3.13;;
9042;SDS011;4556;49.150;8.808;2023-02-01T15:06:31;12.43;;;2.97;;
9042;SDS011;4556;49.150;8.808;2023-02-01T15:09:07;11.60;;;2.43;;
9042;SDS011;4556;49.150;8.808;2023-02-01T15:11:53;7.93;;;2.27;;
9042;SDS011;4556;49.150;8.808;2023-02-01T15:14:23;14.80;;;3.00;;
9042;SDS011;4556;49.150;8.808;2023-02-01T15:16:51;6.43;;;2.40;;
9042;SDS011;4556;49.150;8.808;2023-02-01T15:19:20;8.33;;;2.00;;
9042;SDS011;4556;49.150;8.808;2023-02-01T15:21:49;12.37;;;2.10;;
9042;SDS011;4556;49.150;8.808;2023-02-01T15:24:19;9.40;;;2.27;;
9042;SDS011;4556;49.150;8.808;2023-02-01T15:26:48;14.33;;;2.90;;
9042;SDS011;4556;49.150;8.808;2023-02-01T15:29:15;10.87;;;2.60;;
9042;SDS011;4556;49.150;8.808;2023-02-01T15:31:45;11.27;;;2.27;;
9042;SDS011;4556;49.150;8.808;2023-02-01T15:34:14;8.07;;;2.10;;
9042;SDS011;4556;49.150;8.808;2023-02-01T15:36:42;13.80;;;2.57;;
9042;SDS011;4556;49.150;8.808;2023-02-01T15:41:56;10.63;;;2.47;;
9042;SDS011;4556;49.150;8.808;2023-02-01T15:44:30;9.70;;;2.30;;
9042;SDS011;4556;49.150;8.808;2023-02-01T15:47:06;11.27;;;2.23;;
9042;SDS011;4556;49.150;8.808;2023-02-01T15:49:39;14.43;;;3.50;;
9042;SDS011;4556;49.150;8.808;2023-02-01T15:52:22;9.57;;;2.43;;
9042;SDS011;4556;49.150;8.808;2023-02-01T15:54:53;9.70;;;2.73;;
9042;SDS011;4556;49.150;8.808;2023-02-01T15:57:23;11.83;;;2.47;;
9042;SDS011;4556;49.150;8.808;2023-02-01T15:59:55;11.97;;;2.40;;
9042;SDS011;4556;49.150;8.808;2023-02-01T16:02:37;9.10;;;2.13;;
9042;SDS011;4556;49.150;8.808;2023-02-01T16:05:25;11.80;;;2.90;;
9042;SDS011;4556;49.150;8.808;2023-02-01T16:07:59;12.43;;;2.53;;
9042;SDS011;4556;49.150;8.808;2023-02-01T16:10:29;12.97;;;2.67;;
9042;SDS011;4556;49.150;8.808;2023-02-01T16:12:57;10.70;;;2.97;;
9042;SDS011;4556;49.150;8.808;2023-02-01T16:15:25;5.57;;;2.40;;
9042;SDS011;4556;49.150;8.808;2023-02-01T16:17:56;10.03;;;2.40;;
9042;SDS011;4556;49.150;8.808;2023-02-01T16:20:23;11.10;;;2.57;;
9042;SDS011;4556;49.150;8.808;2023-02-01T16:22:50;10.40;;;2.43;;
9042;SDS011;4556;49.150;8.808;2023-02-01T16:25:17;12.37;;;2.90;;